Time;durP1;ratioP1;P1;durP2;ratioP2;P2;SDS_P1;SDS_P2;PMS_P1;PMS_P2;Temp;Humidity;BMP_temperature;BMP_pressure;BME280_temperature;BME280_humidity;BME280_pressure;Samples;Min_cycle;Max_cycle;Signal;HPM_P1;HPM_P2
2022/10/20 00:01:55;;;;;;;4.35;3.58;;;;;;;;;;5055955;28;20044;-87
2022/10/20 00:04:21;;;;;;;6.45;3.85;;;;;;;;;;5057560;28;20059;-87
2022/10/20 00:06:46;;;;;;;3.67;3.25;;;;;;;;;;5056506;28;20124;-87
2022/10/20 00:09:12;;;;;;;4.53;3.25;;;;;;;;;;5074249;28;20028;-87
2022/10/20 00:11:37;;;;;;;4.45;2.80;;;;;;;;;;5077698;28;20021;-87
2022/10/20 00:14:03;;;;;;;3.28;2.58;;;;;;;;;;5076626;28;20119;-87
2022/10/20 00:16:33;;;;;;;4.60;2.95;;;;;;;;;;5077422;28;20107;-88
2022/10/20 00:18:58;;;;;;;3.78;2.63;;;;;;;;;;5075983;28;20040;-87
2022/10/20 00:21:26;;;;;;;5.05;2.63;;;;;;;;;;5076067;28;20050;-87
2022/10/20 00:23:51;;;;;;;3.33;2.65;;;;;;;;;;5077082;28;20032;-87
2022/10/20 00:26:23;;;;;;;5.13;2.70;;;;;;;;;;5077192;28;20030;-87
2022/10/20 00:28:49;;;;;;;3.30;2.78;;;;;;;;;;5076642;28;20033;-87
2022/10/20 00:31:15;;;;;;;5.20;3.00;;;;;;;;;;5075894;28;20063;-87
2022/10/20 00:33:41;;;;;;;11.00;3.15;;;;;;;;;;5076982;28;20036;-87
2022/10/20 00:36:08;;;;;;;6.10;2.80;;;;;;;;;;5076816;28;20044;-87
2022/10/20 00:38:34;;;;;;;4.55;2.83;;;;;;;;;;5077157;28;20033;-87
2022/10/20 00:41:02;;;;;;;7.38;3.10;;;;;;;;;;5076921;28;20023;-87
2022/10/20 00:43:57;;;;;;;5.80;3.00;;;;;;;;;;5075739;28;20033;-87
2022/10/20 00:46:37;;;;;;;5.78;3.00;;;;;;;;;;5076214;28;20098;-88
2022/10/20 00:49:19;;;;;;;5.28;3.28;;;;;;;;;;5077773;28;20028;-88
2022/10/20 00:51:45;;;;;;;5.90;3.35;;;;;;;;;;5076675;28;20033;-87
2022/10/20 00:54:15;;;;;;;5.25;3.55;;;;;;;;;;5076237;28;20055;-88
2022/10/20 00:56:43;;;;;;;5.63;3.47;;;;;;;;;;5076125;28;20416;-88
2022/10/20 00:59:13;;;;;;;4.43;3.38;;;;;;;;;;5077264;28;20395;-88
2022/10/20 01:01:40;;;;;;;6.97;3.28;;;;;;;;;;5076407;28;20029;-87
2022/10/20 01:04:05;;;;;;;5.60;3.42;;;;;;;;;;5074762;28;20067;-87
2022/10/20 01:06:31;;;;;;;6.60;3.40;;;;;;;;;;5075407;28;20036;-87
2022/10/20 01:08:57;;;;;;;5.22;2.90;;;;;;;;;;5076627;28;20040;-87
2022/10/20 01:11:52;;;;;;;4.53;2.83;;;;;;;;;;5076709;28;20059;-88
2022/10/20 01:14:29;;;;;;;3.38;2.67;;;;;;;;;;5074967;28;20497;-87
2022/10/20 01:17:05;;;;;;;3.58;2.83;;;;;;;;;;5077001;28;20451;-87
2022/10/20 01:20:02;;;;;;;4.75;3.08;;;;;;;;;;5075472;28;20116;-87
2022/10/20 01:22:39;;;;;;;4.85;3.40;;;;;;;;;;5076179;28;20429;-86
2022/10/20 01:25:31;;;;;;;5.97;3.17;;;;;;;;;;5058291;28;20039;-87
2022/10/20 01:28:05;;;;;;;5.00;3.30;;;;;;;;;;5076744;28;20058;-87
2022/10/20 01:30:39;;;;;;;6.93;3.60;;;;;;;;;;5076270;28;20029;-86
2022/10/20 01:33:12;;;;;;;5.72;3.40;;;;;;;;;;5074887;28;20056;-88
2022/10/20 01:35:56;;;;;;;4.03;2.90;;;;;;;;;;5076312;28;20118;-87
2022/10/20 01:38:26;;;;;;;3.85;3.15;;;;;;;;;;5076259;28;20033;-89
2022/10/20 01:41:01;;;;;;;5.55;3.45;;;;;;;;;;5076358;28;20036;-87
2022/10/20 01:43:30;;;;;;;4.45;3.30;;;;;;;;;;5074966;28;20037;-87
2022/10/20 01:45:58;;;;;;;4.55;3.40;;;;;;;;;;5074490;28;20036;-86
2022/10/20 01:48:30;;;;;;;6.25;3.42;;;;;;;;;;5075903;28;20032;-87
2022/10/20 01:50:56;;;;;;;5.38;3.20;;;;;;;;;;5075608;28;20040;-87
2022/10/20 01:53:21;;;;;;;5.10;3.60;;;;;;;;;;5075758;28;20039;-87
2022/10/20 01:55:51;;;;;;;6.60;3.63;;;;;;;;;;5075966;28;20036;-87
2022/10/20 01:58:28;;;;;;;7.05;4.05;;;;;;;;;;5076277;28;20498;-86
2022/10/20 02:01:06;;;;;;;6.03;4.13;;;;;;;;;;5076451;28;20435;-87
2022/10/20 02:03:57;;;;;;;10.15;5.55;;;;;;;;;;5076285;28;20040;-87
2022/10/20 02:06:40;;;;;;;8.95;5.88;;;;;;;;;;5069479;28;20068;-87
2022/10/20 02:09:38;;;;;;;11.00;5.43;;;;;;;;;;5080019;28;20050;-87
2022/10/20 02:12:12;;;;;;;6.55;4.55;;;;;;;;;;5079521;28;20049;-87
2022/10/20 02:14:37;;;;;;;;;;;;;;;;;;5079726;28;20070;-87
2022/10/20 02:17:07;;;;;;;6.50;3.58;;;;;;;;;;5079208;28;19965;-86
2022/10/20 02:19:38;;;;;;;7.70;3.85;;;;;;;;;;5078569;28;20044;-87
2022/10/20 02:22:05;;;;;;;8.15;3.83;;;;;;;;;;5079953;28;20056;-88
2022/10/20 02:24:36;;;;;;;8.43;4.38;;;;;;;;;;5077938;28;20028;-88
2022/10/20 02:27:07;;;;;;;7.32;4.35;;;;;;;;;;5080060;28;20085;-87
2022/10/20 02:29:38;;;;;;;6.28;4.13;;;;;;;;;;5079484;28;20044;-87
2022/10/20 02:32:04;;;;;;;8.55;3.92;;;;;;;;;;5078480;28;20033;-87
2022/10/20 02:34:30;;;;;;;10.15;4.57;;;;;;;;;;5079246;28;20047;-86
2022/10/20 02:36:59;;;;;;;9.13;4.45;;;;;;;;;;5078655;28;20036;-87
2022/10/20 02:39:25;;;;;;;10.98;5.00;;;;;;;;;;5079560;28;20044;-87
2022/10/20 02:41:51;;;;;;;8.55;4.75;;;;;;;;;;5061258;28;20020;-87
2022/10/20 02:44:17;;;;;;;9.85;4.88;;;;;;;;;;5078736;28;20063;-86
2022/10/20 02:46:42;;;;;;;11.13;5.28;;;;;;;;;;5079639;28;20043;-87
2022/10/20 02:49:08;;;;;;;10.20;5.97;;;;;;;;;;5079275;28;20033;-87
2022/10/20 02:51:34;;;;;;;8.52;5.10;;;;;;;;;;5079175;28;20047;-87
2022/10/20 02:53:59;;;;;;;6.93;4.90;;;;;;;;;;5078928;28;20045;-86
2022/10/20 02:56:25;;;;;;;6.90;4.50;;;;;;;;;;5079701;28;20052;-87
2022/10/20 02:58:50;;;;;;;10.75;4.70;;;;;;;;;;5078410;28;20039;-86
2022/10/20 03:01:16;;;;;;;8.10;4.97;;;;;;;;;;5078729;28;20047;-86
2022/10/20 03:03:41;;;;;;;10.27;4.93;;;;;;;;;;5079062;28;20039;-87
2022/10/20 03:06:12;;;;;;;7.15;4.60;;;;;;;;;;5078503;28;20032;-87
2022/10/20 03:08:38;;;;;;;7.43;5.00;;;;;;;;;;5079341;28;20043;-87
2022/10/20 03:11:04;;;;;;;8.40;5.53;;;;;;;;;;5078865;28;20028;-86
2022/10/20 03:13:29;;;;;;;7.53;4.85;;;;;;;;;;5076942;28;20189;-87
2022/10/20 03:15:55;;;;;;;7.95;5.15;;;;;;;;;;5077471;28;20066;-86
2022/10/20 03:18:20;;;;;;;7.80;5.30;;;;;;;;;;5077980;28;20397;-87
2022/10/20 03:20:50;;;;;;;7.97;5.07;;;;;;;;;;5078444;28;20037;-87
2022/10/20 03:23:15;;;;;;;9.20;5.32;;;;;;;;;;5077370;28;20032;-87
2022/10/20 03:25:41;;;;;;;7.45;5.13;;;;;;;;;;5060461;28;20094;-87
2022/10/20 03:28:06;;;;;;;8.00;4.50;;;;;;;;;;5078578;28;20025;-87
2022/10/20 03:30:32;;;;;;;9.93;4.88;;;;;;;;;;5077771;28;20040;-86
2022/10/20 03:32:57;;;;;;;11.10;5.75;;;;;;;;;;5078107;28;20020;-86
2022/10/20 03:35:22;;;;;;;9.40;5.10;;;;;;;;;;5076656;28;20028;-87
2022/10/20 03:37:48;;;;;;;8.13;5.50;;;;;;;;;;5077310;28;20448;-86
2022/10/20 03:40:13;;;;;;;8.85;5.40;;;;;;;;;;5078073;28;20040;-87
2022/10/20 03:42:39;;;;;;;8.15;6.25;;;;;;;;;;5077449;28;20036;-87
2022/10/20 03:45:05;;;;;;;10.15;6.03;;;;;;;;;;5078307;28;20485;-86
2022/10/20 03:47:30;;;;;;;9.95;5.82;;;;;;;;;;5076576;28;20037;-87
2022/10/20 03:49:56;;;;;;;9.05;6.22;;;;;;;;;;5078060;28;20387;-86
2022/10/20 03:52:21;;;;;;;7.90;5.80;;;;;;;;;;5076726;28;20036;-86
2022/10/20 03:54:47;;;;;;;9.48;6.18;;;;;;;;;;5076793;28;20063;-86
2022/10/20 03:57:13;;;;;;;12.45;6.47;;;;;;;;;;5077884;28;20059;-87
2022/10/20 03:59:38;;;;;;;9.30;7.15;;;;;;;;;;5078522;28;20024;-87
2022/10/20 04:02:04;;;;;;;9.82;7.07;;;;;;;;;;5076744;28;20406;-86
2022/10/20 04:04:29;;;;;;;12.45;7.13;;;;;;;;;;5078090;28;20036;-87
2022/10/20 04:06:55;;;;;;;9.48;7.07;;;;;;;;;;5077525;28;20044;-87
2022/10/20 04:09:20;;;;;;;11.10;7.70;;;;;;;;;;5077780;28;20111;-86
2022/10/20 04:11:46;;;;;;;10.63;7.15;;;;;;;;;;5077975;28;20153;-87
2022/10/20 04:14:11;;;;;;;11.95;7.18;;;;;;;;;;5059426;28;20037;-87
2022/10/20 04:16:37;;;;;;;10.07;7.63;;;;;;;;;;5077841;28;20044;-87
2022/10/20 04:19:02;;;;;;;15.10;7.30;;;;;;;;;;5076377;28;20386;-86
2022/10/20 04:21:27;;;;;;;10.63;7.55;;;;;;;;;;5077706;28;20024;-87
2022/10/20 04:23:53;;;;;;;11.40;7.18;;;;;;;;;;5078034;28;20404;-86
2022/10/20 04:26:18;;;;;;;14.20;9.25;;;;;;;;;;5076802;28;20032;-87
2022/10/20 04:28:44;;;;;;;11.55;8.00;;;;;;;;;;5076668;28;20040;-87
2022/10/20 04:31:09;;;;;;;11.63;7.78;;;;;;;;;;5059069;28;20028;-87
2022/10/20 04:33:35;;;;;;;15.70;9.35;;;;;;;;;;5075611;28;20071;-87
2022/10/20 04:36:03;;;;;;;15.82;9.10;;;;;;;;;;5076844;28;20044;-85
2022/10/20 04:38:30;;;;;;;16.83;11.15;;;;;;;;;;5076689;28;20055;-86
2022/10/20 04:40:56;;;;;;;19.77;11.88;;;;;;;;;;5075752;28;20401;-87
2022/10/20 04:43:22;;;;;;;21.17;11.73;;;;;;;;;;5076764;28;20040;-86
2022/10/20 04:45:47;;;;;;;20.30;12.27;;;;;;;;;;5077134;28;20033;-86
2022/10/20 04:48:13;;;;;;;20.88;11.43;;;;;;;;;;5076800;28;20044;-87
2022/10/20 04:50:39;;;;;;;18.50;9.98;;;;;;;;;;5077562;28;20112;-87
2022/10/20 04:53:08;;;;;;;17.35;9.77;;;;;;;;;;5076678;28;20032;-87
2022/10/20 04:55:33;;;;;;;18.75;10.15;;;;;;;;;;5075370;28;20036;-86
2022/10/20 04:57:59;;;;;;;19.02;10.80;;;;;;;;;;5077244;28;20048;-86
2022/10/20 05:00:24;;;;;;;20.02;9.05;;;;;;;;;;5077103;28;20626;-87
2022/10/20 05:02:50;;;;;;;13.60;9.25;;;;;;;;;;5075880;28;20040;-87
2022/10/20 05:05:15;;;;;;;14.45;8.88;;;;;;;;;;5076849;28;20036;-86
2022/10/20 05:07:41;;;;;;;9.98;7.43;;;;;;;;;;5076966;28;20060;-87
2022/10/20 05:10:07;;;;;;;11.05;7.00;;;;;;;;;;5076522;28;20386;-87
2022/10/20 05:12:32;;;;;;;14.48;8.85;;;;;;;;;;5075236;28;20038;-86
2022/10/20 05:14:58;;;;;;;13.02;7.70;;;;;;;;;;5076487;28;20041;-87
2022/10/20 05:17:23;;;;;;;17.60;7.47;;;;;;;;;;5076912;28;20040;-87
2022/10/20 05:19:49;;;;;;;16.15;8.07;;;;;;;;;;5077689;28;20116;-87
2022/10/20 05:22:14;;;;;;;14.93;8.27;;;;;;;;;;5077627;28;20086;-87
2022/10/20 05:24:40;;;;;;;12.35;8.60;;;;;;;;;;5076623;28;20040;-87
2022/10/20 05:27:05;;;;;;;13.27;8.07;;;;;;;;;;5079980;28;20040;-87
2022/10/20 05:29:31;;;;;;;18.45;9.73;;;;;;;;;;5076435;28;20029;-87
2022/10/20 05:31:56;;;;;;;17.30;10.48;;;;;;;;;;5077630;28;20109;-87
2022/10/20 05:34:22;;;;;;;16.42;10.32;;;;;;;;;;5076920;28;20508;-86
2022/10/20 05:36:47;;;;;;;14.57;9.93;;;;;;;;;;5077894;28;20032;-86
2022/10/20 05:39:13;;;;;;;16.92;10.95;;;;;;;;;;5077701;28;20508;-87
2022/10/20 05:41:38;;;;;;;17.42;11.35;;;;;;;;;;5081041;28;20025;-88
2022/10/20 05:44:05;;;;;;;14.13;9.45;;;;;;;;;;5080880;28;20040;-87
2022/10/20 05:46:33;;;;;;;16.55;8.48;;;;;;;;;;5080802;28;20489;-87
2022/10/20 05:49:01;;;;;;;16.00;10.27;;;;;;;;;;5080887;28;20062;-87
2022/10/20 05:51:29;;;;;;;21.08;12.02;;;;;;;;;;5079652;28;20040;-86
2022/10/20 05:53:56;;;;;;;19.67;11.35;;;;;;;;;;5081159;28;20032;-87
2022/10/20 05:56:23;;;;;;;16.02;10.85;;;;;;;;;;5081264;28;20123;-88
2022/10/20 05:58:49;;;;;;;19.15;10.82;;;;;;;;;;5079786;28;20040;-86
2022/10/20 06:01:18;;;;;;;19.10;10.98;;;;;;;;;;5082333;28;20036;-87
2022/10/20 06:03:55;;;;;;;18.58;11.57;;;;;;;;;;5079992;28;20064;-88
2022/10/20 06:06:23;;;;;;;24.40;12.15;;;;;;;;;;5078995;28;20037;-86
2022/10/20 06:08:49;;;;;;;21.42;12.65;;;;;;;;;;5080127;28;20477;-85
2022/10/20 06:11:15;;;;;;;39.45;11.60;;;;;;;;;;5081040;28;20064;-85
2022/10/20 06:13:41;;;;;;;25.95;11.20;;;;;;;;;;5078816;28;20036;-85
2022/10/20 06:16:10;;;;;;;23.75;12.13;;;;;;;;;;5081716;28;20039;-86
2022/10/20 06:18:37;;;;;;;32.38;11.68;;;;;;;;;;5081408;28;20401;-85
2022/10/20 06:21:06;;;;;;;40.33;11.23;;;;;;;;;;5079843;28;20481;-86
2022/10/20 06:23:32;;;;;;;51.28;11.60;;;;;;;;;;5079996;28;20059;-87
2022/10/20 06:26:08;;;;;;;44.60;10.68;;;;;;;;;;5080192;28;20032;-87
2022/10/20 06:28:36;;;;;;;40.45;11.40;;;;;;;;;;5060265;28;20037;-86
2022/10/20 06:31:09;;;;;;;23.17;12.07;;;;;;;;;;5041573;28;20021;-87
2022/10/20 06:33:34;;;;;;;69.47;10.48;;;;;;;;;;5058382;28;20040;-87
2022/10/20 06:36:00;;;;;;;26.88;10.93;;;;;;;;;;5061362;28;20140;-87
2022/10/20 06:38:26;;;;;;;31.92;10.77;;;;;;;;;;5057801;28;20033;-86
2022/10/20 06:40:52;;;;;;;62.38;11.43;;;;;;;;;;5060445;28;20025;-85
2022/10/20 06:43:17;;;;;;;39.28;11.85;;;;;;;;;;5060079;28;20032;-86
2022/10/20 06:45:42;;;;;;;59.63;12.07;;;;;;;;;;5058031;28;20037;-88
2022/10/20 06:48:08;;;;;;;47.22;11.98;;;;;;;;;;5040537;28;20662;-87
2022/10/20 06:50:34;;;;;;;34.45;11.30;;;;;;;;;;5058016;28;20478;-87
2022/10/20 06:52:59;;;;;;;25.88;12.23;;;;;;;;;;5056206;28;20045;-87
2022/10/20 06:55:25;;;;;;;19.73;11.82;;;;;;;;;;5058099;28;20032;-88
2022/10/20 06:57:50;;;;;;;23.67;12.05;;;;;;;;;;5059031;28;20048;-87
2022/10/20 07:00:16;;;;;;;24.52;12.40;;;;;;;;;;5058106;28;20504;-87
2022/10/20 07:02:41;;;;;;;24.48;12.85;;;;;;;;;;5056722;28;20410;-87
2022/10/20 07:05:07;;;;;;;23.02;11.98;;;;;;;;;;5057106;28;20044;-87
2022/10/20 07:07:32;;;;;;;21.52;12.80;;;;;;;;;;5058340;28;20037;-87
2022/10/20 07:09:58;;;;;;;24.65;12.18;;;;;;;;;;5056025;28;20028;-87
2022/10/20 07:12:23;;;;;;;23.10;11.90;;;;;;;;;;5057579;28;20478;-87
2022/10/20 07:14:49;;;;;;;18.15;10.70;;;;;;;;;;5057236;28;20041;-87
2022/10/20 07:17:14;;;;;;;15.25;10.18;;;;;;;;;;5057692;28;20029;-87
2022/10/20 07:19:40;;;;;;;17.15;10.48;;;;;;;;;;5057716;28;20041;-88
2022/10/20 07:22:05;;;;;;;16.77;9.68;;;;;;;;;;5057779;28;20081;-87
2022/10/20 07:24:30;;;;;;;15.18;9.48;;;;;;;;;;5057066;28;20402;-87
2022/10/20 07:26:56;;;;;;;15.13;9.27;;;;;;;;;;5058372;28;20060;-87
2022/10/20 07:29:21;;;;;;;13.10;9.38;;;;;;;;;;5057213;28;20106;-86
2022/10/20 07:31:47;;;;;;;13.82;9.25;;;;;;;;;;5054747;28;20049;-86
2022/10/20 07:34:15;;;;;;;16.90;9.90;;;;;;;;;;5056481;28;20044;-88
2022/10/20 07:36:43;;;;;;;16.15;8.85;;;;;;;;;;5065982;28;20033;-87
2022/10/20 07:39:10;;;;;;;13.18;9.02;;;;;;;;;;5074616;28;20596;-88
2022/10/20 07:41:36;;;;;;;13.40;9.57;;;;;;;;;;5074280;28;20064;-87
2022/10/20 07:44:01;;;;;;;16.25;10.30;;;;;;;;;;5075430;28;20043;-87
2022/10/20 07:46:27;;;;;;;15.30;9.63;;;;;;;;;;5076792;28;20045;-88
2022/10/20 07:48:52;;;;;;;14.07;9.00;;;;;;;;;;5076121;28;20034;-87
2022/10/20 07:51:23;;;;;;;11.90;8.95;;;;;;;;;;5078296;28;20028;-88
2022/10/20 07:53:54;;;;;;;13.00;9.02;;;;;;;;;;5077869;28;20047;-91
2022/10/20 07:56:19;;;;;;;14.73;7.85;;;;;;;;;;5076549;28;20096;-88
2022/10/20 07:58:45;;;;;;;11.93;8.00;;;;;;;;;;5075165;28;20458;-85
2022/10/20 08:01:11;;;;;;;9.68;7.10;;;;;;;;;;5073383;28;20105;-85
2022/10/20 08:03:37;;;;;;;9.27;6.63;;;;;;;;;;5073113;28;20031;-85
2022/10/20 08:06:03;;;;;;;9.73;6.40;;;;;;;;;;5073088;28;20481;-85
2022/10/20 08:08:28;;;;;;;7.90;6.20;;;;;;;;;;5073106;28;20036;-85
2022/10/20 08:10:54;;;;;;;10.38;6.22;;;;;;;;;;5073074;28;20044;-86
2022/10/20 08:13:20;;;;;;;10.30;5.70;;;;;;;;;;5071341;28;20036;-86
2022/10/20 08:15:45;;;;;;;8.43;6.43;;;;;;;;;;5073203;28;20558;-86
2022/10/20 08:18:11;;;;;;;7.82;5.85;;;;;;;;;;5072772;28;20060;-85
2022/10/20 08:20:37;;;;;;;7.93;6.00;;;;;;;;;;5072707;28;20115;-85
2022/10/20 08:23:02;;;;;;;8.25;5.80;;;;;;;;;;5073021;28;20082;-86
2022/10/20 08:25:27;;;;;;;7.90;5.18;;;;;;;;;;5072399;28;20044;-85
2022/10/20 08:27:53;;;;;;;7.07;5.05;;;;;;;;;;5073672;28;20044;-86
2022/10/20 08:30:18;;;;;;;9.65;5.40;;;;;;;;;;5073415;28;20063;-86
2022/10/20 08:32:44;;;;;;;6.68;4.50;;;;;;;;;;5054835;28;20132;-85
2022/10/20 08:35:09;;;;;;;8.52;4.90;;;;;;;;;;5074666;28;20036;-86
2022/10/20 08:37:35;;;;;;;7.13;4.80;;;;;;;;;;5057755;28;20123;-86
2022/10/20 08:40:04;;;;;;;7.60;4.57;;;;;;;;;;5075748;28;20397;-85
2022/10/20 08:42:38;;;;;;;17.13;4.60;;;;;;;;;;5072438;28;20044;-84
2022/10/20 08:45:14;;;;;;;7.82;5.25;;;;;;;;;;5073015;28;20032;-86
2022/10/20 08:47:39;;;;;;;9.68;4.70;;;;;;;;;;5073017;28;20036;-85
2022/10/20 08:50:08;;;;;;;7.93;4.90;;;;;;;;;;5072538;28;20028;-86
2022/10/20 08:52:34;;;;;;;6.20;5.05;;;;;;;;;;5070988;28;20048;-86
2022/10/20 08:55:03;;;;;;;6.28;4.70;;;;;;;;;;5053484;28;20029;-86
2022/10/20 08:57:31;;;;;;;6.72;5.28;;;;;;;;;;5051267;28;20033;-86
2022/10/20 09:00:22;;;;;;;6.68;4.53;;;;;;;;;;5052217;28;20379;-86
2022/10/20 09:02:49;;;;;;;6.32;4.50;;;;;;;;;;5052386;28;20040;-86
2022/10/20 09:05:21;;;;;;;10.32;4.93;;;;;;;;;;5051089;28;20036;-87
2022/10/20 09:07:50;;;;;;;6.95;4.78;;;;;;;;;;5052411;28;20052;-86
2022/10/20 09:10:24;;;;;;;9.48;4.80;;;;;;;;;;5072713;28;20037;-86
2022/10/20 09:12:51;;;;;;;7.57;5.10;;;;;;;;;;5073357;28;20036;-87
2022/10/20 09:15:18;;;;;;;7.05;4.97;;;;;;;;;;5073253;28;20028;-85
2022/10/20 09:17:48;;;;;;;6.82;4.72;;;;;;;;;;5077905;28;20040;-86
2022/10/20 09:20:37;;;;;;;7.45;4.68;;;;;;;;;;5075425;28;20036;-86
2022/10/20 09:23:02;;;;;;;8.30;4.63;;;;;;;;;;5076256;28;20043;-86
2022/10/20 09:25:28;;;;;;;7.28;4.22;;;;;;;;;;5075928;28;20032;-86
2022/10/20 09:27:55;;;;;;;8.93;4.68;;;;;;;;;;5076162;28;20115;-87
2022/10/20 09:30:34;;;;;;;7.22;4.55;;;;;;;;;;5076261;28;20105;-86
2022/10/20 09:33:28;;;;;;;8.75;4.50;;;;;;;;;;5076505;28;20112;-86
2022/10/20 09:35:57;;;;;;;;;;;;;;;;;;5076314;28;20079;-86
2022/10/20 09:38:28;;;;;;;7.15;4.50;;;;;;;;;;5076082;28;20411;-87
2022/10/20 09:41:06;;;;;;;11.73;4.03;;;;;;;;;;5076534;28;20036;-87
2022/10/20 09:43:32;;;;;;;6.05;4.22;;;;;;;;;;5076623;28;20028;-87
2022/10/20 09:46:03;;;;;;;6.10;4.57;;;;;;;;;;5076752;28;20181;-87
2022/10/20 09:48:39;;;;;;;7.28;3.97;;;;;;;;;;5074790;28;20033;-87
2022/10/20 09:51:11;;;;;;;6.95;4.65;;;;;;;;;;5074840;28;20043;-87
2022/10/20 09:53:55;;;;;;;7.50;4.37;;;;;;;;;;5077404;28;20036;-88
2022/10/20 09:56:31;;;;;;;7.72;4.13;;;;;;;;;;5080705;28;20044;-87
2022/10/20 09:58:58;;;;;;;6.72;4.22;;;;;;;;;;5076242;28;20447;-87
2022/10/20 10:01:24;;;;;;;8.10;4.50;;;;;;;;;;5076020;28;20396;-87
2022/10/20 10:03:51;;;;;;;8.40;4.05;;;;;;;;;;5075490;28;20127;-87
2022/10/20 10:06:39;;;;;;;8.68;4.13;;;;;;;;;;5076921;28;20044;-87
2022/10/20 10:09:23;;;;;;;7.38;4.30;;;;;;;;;;5074890;28;20485;-88
2022/10/20 10:12:10;;;;;;;7.78;5.10;;;;;;;;;;5076290;28;20047;-87
2022/10/20 10:14:37;;;;;;;8.77;5.03;;;;;;;;;;5082129;28;20036;-87
2022/10/20 10:17:02;;;;;;;7.15;4.70;;;;;;;;;;5078075;28;20032;-88
2022/10/20 10:19:30;;;;;;;7.82;4.70;;;;;;;;;;5077167;28;20036;-87
2022/10/20 10:21:58;;;;;;;7.95;4.43;;;;;;;;;;5073880;28;20040;-87
2022/10/20 10:24:42;;;;;;;5.85;3.78;;;;;;;;;;5074675;28;20046;-88
2022/10/20 10:27:26;;;;;;;9.50;3.80;;;;;;;;;;5074378;28;20115;-88
2022/10/20 10:29:53;;;;;;;6.63;4.03;;;;;;;;;;5057107;28;20119;-87
2022/10/20 10:32:27;;;;;;;7.25;4.30;;;;;;;;;;5075082;28;20037;-89
2022/10/20 10:35:11;;;;;;;7.47;4.15;;;;;;;;;;5075394;28;20485;-87
2022/10/20 10:37:37;;;;;;;;;;;;;;;;;;5077439;28;20055;-85
2022/10/20 10:40:18;;;;;;;7.50;4.60;;;;;;;;;;5075434;28;19916;-87
2022/10/20 10:43:21;;;;;;;9.25;4.15;;;;;;;;;;5075586;28;20431;-87
2022/10/20 10:45:56;;;;;;;11.35;4.22;;;;;;;;;;5075232;28;20040;-85
2022/10/20 10:48:41;;;;;;;8.20;4.40;;;;;;;;;;5076113;28;20511;-86
2022/10/20 10:51:09;;;;;;;6.78;4.75;;;;;;;;;;5057283;28;20043;-87
2022/10/20 10:53:53;;;;;;;8.48;4.35;;;;;;;;;;5075297;28;20036;-86
2022/10/20 10:56:35;;;;;;;8.63;4.00;;;;;;;;;;5075086;28;20481;-87
2022/10/20 10:59:11;;;;;;;6.78;4.35;;;;;;;;;;5075345;28;20032;-87
2022/10/20 11:01:36;;;;;;;6.68;4.55;;;;;;;;;;5057688;28;20097;-86
2022/10/20 11:04:40;;;;;;;8.18;4.53;;;;;;;;;;5075046;28;20060;-86
2022/10/20 11:07:20;;;;;;;7.88;4.70;;;;;;;;;;5074250;28;20113;-86
2022/10/20 11:10:04;;;;;;;5.53;4.13;;;;;;;;;;5076152;28;20512;-86
2022/10/20 11:12:50;;;;;;;8.38;4.20;;;;;;;;;;5075802;28;20044;-86
2022/10/20 11:15:16;;;;;;;8.18;4.40;;;;;;;;;;5075846;28;20068;-87
2022/10/20 11:17:46;;;;;;;10.30;4.70;;;;;;;;;;5075083;28;20056;-87
2022/10/20 11:20:11;;;;;;;5.82;4.22;;;;;;;;;;5057899;28;20045;-88
2022/10/20 11:22:56;;;;;;;5.32;3.78;;;;;;;;;;5074031;28;20480;-86
2022/10/20 11:25:38;;;;;;;8.80;4.30;;;;;;;;;;5075336;28;20045;-87
2022/10/20 11:28:12;;;;;;;7.13;4.15;;;;;;;;;;5075164;28;20540;-87
2022/10/20 11:30:37;;;;;;;8.13;3.88;;;;;;;;;;5075671;28;20105;-87
2022/10/20 11:33:07;;;;;;;9.85;4.47;;;;;;;;;;5075434;28;20435;-88
2022/10/20 11:35:46;;;;;;;10.30;4.25;;;;;;;;;;5075453;28;20036;-87
2022/10/20 11:38:37;;;;;;;6.75;4.25;;;;;;;;;;5074443;28;20111;-87
2022/10/20 11:41:25;;;;;;;9.77;4.32;;;;;;;;;;5074659;28;20071;-87
2022/10/20 11:43:51;;;;;;;8.10;4.40;;;;;;;;;;5068773;28;20068;-87
2022/10/20 11:46:27;;;;;;;10.77;4.50;;;;;;;;;;5074398;28;20145;-87
2022/10/20 11:48:54;;;;;;;10.55;4.38;;;;;;;;;;5073875;28;20115;-88
2022/10/20 11:51:28;;;;;;;11.00;4.60;;;;;;;;;;5071957;28;20058;-87
2022/10/20 11:54:28;;;;;;;8.18;4.75;;;;;;;;;;5073853;28;20171;-88
2022/10/20 11:57:05;;;;;;;8.82;4.50;;;;;;;;;;5073681;28;20512;-87
2022/10/20 11:59:56;;;;;;;8.13;4.82;;;;;;;;;;5072422;28;20079;-88
2022/10/20 12:02:31;;;;;;;6.43;4.20;;;;;;;;;;5073789;28;20028;-88
2022/10/20 12:05:09;;;;;;;7.88;4.15;;;;;;;;;;5073065;28;20119;-88
2022/10/20 12:07:43;;;;;;;9.43;4.88;;;;;;;;;;5073688;28;20029;-88
2022/10/20 12:10:27;;;;;;;11.55;4.65;;;;;;;;;;5073374;28;20115;-88
2022/10/20 12:13:02;;;;;;;7.18;4.70;;;;;;;;;;5071929;28;20123;-88
2022/10/20 12:15:28;;;;;;;8.48;4.40;;;;;;;;;;5072020;28;20036;-88
2022/10/20 12:18:04;;;;;;;12.77;5.10;;;;;;;;;;5073059;28;20120;-88
2022/10/20 12:20:29;;;;;;;9.00;4.65;;;;;;;;;;5071920;28;20089;-88
2022/10/20 12:23:01;;;;;;;12.23;4.72;;;;;;;;;;5073240;28;20036;-88
2022/10/20 12:25:26;;;;;;;8.15;4.10;;;;;;;;;;5071957;28;20032;-89
2022/10/20 12:28:21;;;;;;;11.65;4.20;;;;;;;;;;5073064;28;20040;-88
2022/10/20 12:30:55;;;;;;;10.48;4.88;;;;;;;;;;5073202;28;20036;-88
2022/10/20 12:33:53;;;;;;;9.88;4.55;;;;;;;;;;5071679;28;20041;-88
2022/10/20 12:36:18;;;;;;;9.55;4.43;;;;;;;;;;5071399;28;20400;-87
2022/10/20 12:38:49;;;;;;;9.77;4.55;;;;;;;;;;5071714;28;20036;-88
2022/10/20 12:41:29;;;;;;;13.13;4.97;;;;;;;;;;5072810;28;20029;-89
2022/10/20 12:44:00;;;;;;;8.13;4.60;;;;;;;;;;5073147;28;20041;-89
2022/10/20 12:46:30;;;;;;;9.50;4.72;;;;;;;;;;5072664;28;20048;-88
2022/10/20 12:49:00;;;;;;;8.38;4.68;;;;;;;;;;5072675;28;20032;-88
2022/10/20 12:51:37;;;;;;;7.72;5.00;;;;;;;;;;5071661;28;20032;-88
2022/10/20 12:54:15;;;;;;;8.27;4.90;;;;;;;;;;5071555;28;20036;-89
2022/10/20 12:56:41;;;;;;;10.95;4.82;;;;;;;;;;5072553;28;20042;-88
2022/10/20 12:59:20;;;;;;;10.02;4.57;;;;;;;;;;5071326;28;20110;-88
2022/10/20 13:02:07;;;;;;;11.50;4.57;;;;;;;;;;5071577;28;20032;-87
2022/10/20 13:05:07;;;;;;;9.30;4.53;;;;;;;;;;5072245;28;20451;-88
2022/10/20 13:07:45;;;;;;;12.20;4.88;;;;;;;;;;5071117;28;20039;-88
2022/10/20 13:10:25;;;;;;;13.40;4.50;;;;;;;;;;5071157;28;20037;-89
2022/10/20 13:13:11;;;;;;;7.93;4.82;;;;;;;;;;5072404;28;20120;-89
2022/10/20 13:15:43;;;;;;;10.38;4.47;;;;;;;;;;5065152;28;20485;-87
2022/10/20 13:18:11;;;;;;;8.10;5.13;;;;;;;;;;5073481;28;20040;-88
2022/10/20 13:20:52;;;;;;;11.30;4.68;;;;;;;;;;5074508;28;20036;-88
2022/10/20 13:23:22;;;;;;;8.10;4.35;;;;;;;;;;5074790;28;20055;-87
2022/10/20 13:25:51;;;;;;;9.40;4.82;;;;;;;;;;5074301;28;20105;-88
2022/10/20 13:28:26;;;;;;;14.07;4.45;;;;;;;;;;5073680;28;20119;-88
2022/10/20 13:30:55;;;;;;;8.23;4.50;;;;;;;;;;5073584;28;20035;-87
2022/10/20 13:33:48;;;;;;;11.25;4.90;;;;;;;;;;5073671;28;20036;-87
2022/10/20 13:36:28;;;;;;;7.70;5.13;;;;;;;;;;5074120;28;20473;-88
2022/10/20 13:39:20;;;;;;;9.63;4.88;;;;;;;;;;5073375;28;20064;-88
2022/10/20 13:42:03;;;;;;;9.10;5.13;;;;;;;;;;5075620;28;20037;-87
2022/10/20 13:44:49;;;;;;;18.33;5.35;;;;;;;;;;5075752;28;20131;-88
2022/10/20 13:47:32;;;;;;;11.23;4.97;;;;;;;;;;5077190;28;20040;-88
2022/10/20 13:49:59;;;;;;;9.43;5.30;;;;;;;;;;5076230;28;20036;-88
2022/10/20 13:52:29;;;;;;;11.50;5.10;;;;;;;;;;5076238;28;20044;-87
2022/10/20 13:54:55;;;;;;;9.40;4.80;;;;;;;;;;5077436;28;20059;-88
2022/10/20 13:57:20;;;;;;;12.30;4.68;;;;;;;;;;5077161;28;20032;-88
2022/10/20 13:59:58;;;;;;;13.40;5.38;;;;;;;;;;5075422;28;20588;-88
2022/10/20 14:02:27;;;;;;;10.90;4.63;;;;;;;;;;5078078;28;20214;-88
2022/10/20 14:05:07;;;;;;;9.88;4.90;;;;;;;;;;5078876;28;20038;-88
2022/10/20 14:07:41;;;;;;;8.30;4.95;;;;;;;;;;5078903;28;20094;-88
2022/10/20 14:10:20;;;;;;;13.27;5.53;;;;;;;;;;5078831;28;20505;-87
2022/10/20 14:12:46;;;;;;;10.10;5.53;;;;;;;;;;5080550;28;20033;-88
2022/10/20 14:15:16;;;;;;;11.50;6.07;;;;;;;;;;5081119;28;20448;-88
2022/10/20 14:17:41;;;;;;;8.52;5.35;;;;;;;;;;5078566;28;20492;-88
2022/10/20 14:20:19;;;;;;;15.00;6.25;;;;;;;;;;5081091;28;20048;-88
2022/10/20 14:22:45;;;;;;;10.25;5.25;;;;;;;;;;5077284;28;20036;-88
2022/10/20 14:25:11;;;;;;;11.63;5.60;;;;;;;;;;5077879;28;20385;-88
2022/10/20 14:27:36;;;;;;;11.70;5.38;;;;;;;;;;5078665;28;20063;-88
2022/10/20 14:30:04;;;;;;;12.95;6.07;;;;;;;;;;5077104;28;20082;-88
2022/10/20 14:32:33;;;;;;;13.18;5.65;;;;;;;;;;5079971;28;20032;-88
2022/10/20 14:35:25;;;;;;;11.43;5.72;;;;;;;;;;5078779;28;20040;-90
2022/10/20 14:38:18;;;;;;;11.35;6.10;;;;;;;;;;5077615;28;20036;-88
2022/10/20 14:40:55;;;;;;;11.77;5.30;;;;;;;;;;5072484;28;20060;-88
2022/10/20 14:43:37;;;;;;;10.35;5.63;;;;;;;;;;5075849;28;20047;-88
2022/10/20 14:46:04;;;;;;;10.48;5.32;;;;;;;;;;5074734;28;20558;-89
2022/10/20 14:48:38;;;;;;;9.45;5.15;;;;;;;;;;5075328;28;20455;-88
2022/10/20 14:51:48;;;;;;;9.63;5.10;;;;;;;;;;5074892;28;20090;-88
2022/10/20 14:54:20;;;;;;;12.55;5.22;;;;;;;;;;5073005;28;20048;-88
2022/10/20 14:56:47;;;;;;;10.80;5.50;;;;;;;;;;5075861;28;20429;-87
2022/10/20 14:59:14;;;;;;;8.75;5.10;;;;;;;;;;5075573;28;20086;-88